Observation data for Reese Center on 02/12/2018      Previous  Date  Next       Current Mesonet Observations  Soil Data  Daily Summary Page  Observations in Plain Language
KREE 120600Z 16005KT M04/M14 A3021 RMK A01 T10371138  RH  046%=      5-min Rain = 0
KREE 120605Z 16006KT M04/M14 A3021 RMK A01 T10391137  RH  047%=      5-min Rain = 0
KREE 120610Z 16005KT M04/M14 A3021 RMK A01 T10421141  RH  047%=      5-min Rain = 0
KREE 120615Z 17005KT M05/M14 A3022 RMK A01 T10461140  RH  049%=      5-min Rain = 0
KREE 120620Z 17004KT M05/M14 A3022 RMK A01 T10471140  RH  049%=      5-min Rain = 0
KREE 120625Z 17004KT M05/M14 A3022 RMK A01 T10451138  RH  049%=      5-min Rain = 0
KREE 120630Z 16004KT M04/M14 A3022 RMK A01 T10411139  RH  047%=      5-min Rain = 0
KREE 120635Z 16005KT M04/M14 A3022 RMK A01 T10421141  RH  047%=      5-min Rain = 0
KREE 120640Z 16004KT M04/M14 A3022 RMK A01 T10441142  RH  047%=      5-min Rain = 0
KREE 120645Z 16004KT M05/M14 A3022 RMK A01 T10461143  RH  048%=      5-min Rain = 0
KREE 120650Z 17004KT M05/M14 A3022 RMK A01 T10471142  RH  048%=      5-min Rain = 0
KREE 120655Z 18005KT M05/M14 A3022 RMK A01 T10461142  RH  048%=      5-min Rain = 0
KREE 120700Z 17004KT M05/M14 A3022 RMK A01 T10461142  RH  048%=      5-min Rain = 0
KREE 120705Z 17005KT M05/M14 A3023 RMK A01 T10501144  RH  048%=      5-min Rain = 0
KREE 120710Z 17005KT M05/M14 A3023 RMK A01 T10531143  RH  050%=      5-min Rain = 0
KREE 120715Z 18004KT M05/M14 A3023 RMK A01 T10531142  RH  050%=      5-min Rain = 0
KREE 120720Z 18004KT M05/M14 A3023 RMK A01 T10541143  RH  050%=      5-min Rain = 0
KREE 120725Z 18004KT M06/M14 A3023 RMK A01 T10551143  RH  051%=      5-min Rain = 0
KREE 120730Z 18004KT M06/M14 A3023 RMK A01 T10551144  RH  050%=      5-min Rain = 0
KREE 120735Z 17004KT M06/M14 A3023 RMK A01 T10551143  RH  051%=      5-min Rain = 0
KREE 120740Z 17004KT M06/M14 A3023 RMK A01 T10551142  RH  051%=      5-min Rain = 0
KREE 120745Z 16005KT M06/M14 A3023 RMK A01 T10551144  RH  050%=      5-min Rain = 0
KREE 120750Z 17005KT M06/M14 A3023 RMK A01 T10551144  RH  051%=      5-min Rain = 0
KREE 120755Z 17005KT M06/M14 A3023 RMK A01 T10561144  RH  050%=      5-min Rain = 0
KREE 120800Z 17005KT M06/M15 A3023 RMK A01 T10561145  RH  050%=      5-min Rain = 0
KREE 120805Z 17004KT M06/M14 A3023 RMK A01 T10561143  RH  051%=      5-min Rain = 0
KREE 120810Z 18004KT M05/M14 A3024 RMK A01 T10541142  RH  050%=      5-min Rain = 0
KREE 120815Z 18003KT M06/M15 A3024 RMK A01 T10551146  RH  050%=      5-min Rain = 0
KREE 120820Z 18004KT M06/M15 A3024 RMK A01 T10581145  RH  051%=      5-min Rain = 0
KREE 120825Z 19005KT M06/M15 A3024 RMK A01 T10601145  RH  052%=      5-min Rain = 0
KREE 120830Z 17005KT M06/M15 A3024 RMK A01 T10621146  RH  052%=      5-min Rain = 0
KREE 120835Z 17005KT M06/M15 A3024 RMK A01 T10621145  RH  053%=      5-min Rain = 0
KREE 120840Z 17004KT M06/M15 A3024 RMK A01 T10611145  RH  052%=      5-min Rain = 0
KREE 120845Z 18004KT M06/M15 A3024 RMK A01 T10601146  RH  052%=      5-min Rain = 0
KREE 120850Z 17004KT M06/M15 A3024 RMK A01 T10611146  RH  052%=      5-min Rain = 0
KREE 120855Z 17004KT M06/M15 A3024 RMK A01 T10621146  RH  052%=      5-min Rain = 0
KREE 120900Z 17003KT M06/M14 A3024 RMK A01 T10611144  RH  053%=      5-min Rain = 0
KREE 120905Z 17002KT M06/M14 A3024 RMK A01 T10601143  RH  052%=      5-min Rain = 0
KREE 120910Z 16002KT M06/M14 A3024 RMK A01 T10591144  RH  052%=      5-min Rain = 0
KREE 120915Z 15002KT M06/M15 A3024 RMK A01 T10591145  RH  052%=      5-min Rain = 0
KREE 120920Z 15003KT M06/M15 A3024 RMK A01 T10601145  RH  052%=      5-min Rain = 0
KREE 120925Z 14003KT M06/M14 A3024 RMK A01 T10601144  RH  052%=      5-min Rain = 0
KREE 120930Z 15002KT M06/M14 A3025 RMK A01 T10591144  RH  052%=      5-min Rain = 0
KREE 120935Z 17002KT M06/M15 A3025 RMK A01 T10621147  RH  051%=      5-min Rain = 0
KREE 120940Z 14002KT M07/M15 A3025 RMK A01 T10671151  RH  052%=      5-min Rain = 0
KREE 120945Z 17002KT M07/M15 A3025 RMK A01 T10681148  RH  054%=      5-min Rain = 0
KREE 120950Z 19002KT M07/M15 A3025 RMK A01 T10671146  RH  054%=      5-min Rain = 0
KREE 120955Z 19004KT M07/M15 A3026 RMK A01 T10661147  RH  053%=      5-min Rain = 0
KREE 121000Z 18005KT M07/M15 A3026 RMK A01 T10661145  RH  054%=      5-min Rain = 0
KREE 121005Z 17005KT M06/M14 A3026 RMK A01 T10631142  RH  054%=      5-min Rain = 0
KREE 121010Z 17003KT M06/M14 A3025 RMK A01 T10571139  RH  053%=      5-min Rain = 0
KREE 121015Z 16004KT M05/M14 A3025 RMK A01 T10541138  RH  052%=      5-min Rain = 0
KREE 121020Z 17003KT M05/M14 A3025 RMK A01 T10521138  RH  052%=      5-min Rain = 0
KREE 121025Z 16004KT M05/M14 A3025 RMK A01 T10511137  RH  051%=      5-min Rain = 0
KREE 121030Z 15005KT M05/M14 A3025 RMK A01 T10491137  RH  051%=      5-min Rain = 0
KREE 121035Z 15005KT M05/M13 A3025 RMK A01 T10481134  RH  052%=      5-min Rain = 0
KREE 121040Z 15005KT M05/M13 A3025 RMK A01 T10451132  RH  052%=      5-min Rain = 0
KREE 121045Z 15004KT M04/M13 A3025 RMK A01 T10421129  RH  052%=      5-min Rain = 0
KREE 121050Z 16005KT M04/M13 A3025 RMK A01 T10401129  RH  051%=      5-min Rain = 0
KREE 121055Z 17005KT M04/M13 A3025 RMK A01 T10381129  RH  050%=      5-min Rain = 0
KREE 121100Z 18004KT M04/M13 A3025 RMK A01 T10371129  RH  049%=      5-min Rain = 0
KREE 121105Z 17004KT M04/M13 A3025 RMK A01 T10371131  RH  049%=      5-min Rain = 0
KREE 121110Z 15005KT M04/M13 A3025 RMK A01 T10371131  RH  049%=      5-min Rain = 0
KREE 121115Z 15006KT M04/M13 A3024 RMK A01 T10361130  RH  049%=      5-min Rain = 0
KREE 121120Z 15010KT M03/M13 A3024 RMK A01 T10341128  RH  049%=      5-min Rain = 0
KREE 121125Z 15009KT M03/M13 A3023 RMK A01 T10321128  RH  048%=      5-min Rain = 0
KREE 121130Z 15009KT M03/M13 A3023 RMK A01 T10301127  RH  048%=      5-min Rain = 0
KREE 121135Z 15008KT M03/M13 A3024 RMK A01 T10291127  RH  047%=      5-min Rain = 0
KREE 121140Z 16007KT M03/M13 A3025 RMK A01 T10291127  RH  047%=      5-min Rain = 0
KREE 121145Z 16007KT M03/M13 A3025 RMK A01 T10301127  RH  048%=      5-min Rain = 0
KREE 121150Z 17006KT M03/M13 A3025 RMK A01 T10311128  RH  048%=      5-min Rain = 0
KREE 121155Z 17007KT M03/M13 A3025 RMK A01 T10341130  RH  048%=      5-min Rain = 0
KREE 121200Z 16006KT M04/M13 A3025 RMK A01 T10361131  RH  048%=      5-min Rain = 0
KREE 121205Z 16005KT M04/M13 A3025 RMK A01 T10391133  RH  049%=      5-min Rain = 0
KREE 121210Z 16004KT M04/M13 A3025 RMK A01 T10421133  RH  050%=      5-min Rain = 0
KREE 121215Z 16005KT M04/M13 A3025 RMK A01 T10441133  RH  051%=      5-min Rain = 0
KREE 121220Z 15005KT M05/M13 A3025 RMK A01 T10451134  RH  051%=      5-min Rain = 0
KREE 121225Z 14005KT M05/M14 A3025 RMK A01 T10471135  RH  051%=      5-min Rain = 0
KREE 121230Z 12003KT M05/M14 A3026 RMK A01 T10501135  RH  052%=      5-min Rain = 0
KREE 121235Z 12003KT M05/M14 A3026 RMK A01 T10521135  RH  053%=      5-min Rain = 0
KREE 121240Z 14003KT M05/M14 A3026 RMK A01 T10531135  RH  053%=      5-min Rain = 0
KREE 121245Z 12003KT M05/M13 A3026 RMK A01 T10521133  RH  054%=      5-min Rain = 0
KREE 121250Z 12003KT M05/M13 A3026 RMK A01 T10491132  RH  053%=      5-min Rain = 0
KREE 121255Z 12004KT M05/M13 A3026 RMK A01 T10491133  RH  053%=      5-min Rain = 0
KREE 121300Z 13004KT M05/M13 A3026 RMK A01 T10481132  RH  052%=      5-min Rain = 0
KREE 121305Z 11003KT M05/M13 A3027 RMK A01 T10471132  RH  052%=      5-min Rain = 0
KREE 121310Z 10003KT M05/M13 A3027 RMK A01 T10471132  RH  052%=      5-min Rain = 0
KREE 121315Z 07002KT M05/M13 A3027 RMK A01 T10491133  RH  052%=      5-min Rain = 0
KREE 121320Z 05003KT M05/M13 A3027 RMK A01 T10541134  RH  054%=      5-min Rain = 0
KREE 121325Z 08003KT M05/M14 A3027 RMK A01 T10541135  RH  054%=      5-min Rain = 0
KREE 121330Z 12004KT M05/M14 A3027 RMK A01 T10541136  RH  053%=      5-min Rain = 0
KREE 121335Z 14006KT M06/M14 A3027 RMK A01 T10561138  RH  053%=      5-min Rain = 0
KREE 121340Z 14007KT M06/M13 A3027 RMK A01 T10551133  RH  055%=      5-min Rain = 0
KREE 121345Z 14006KT M05/M13 A3027 RMK A01 T10481129  RH  054%=      5-min Rain = 0
KREE 121350Z 14006KT M04/M13 A3027 RMK A01 T10441129  RH  052%=      5-min Rain = 0
KREE 121355Z 14006KT M04/M13 A3028 RMK A01 T10421129  RH  051%=      5-min Rain = 0
KREE 121400Z 14006KT M04/M13 A3028 RMK A01 T10421129  RH  052%=      5-min Rain = 0
KREE 121405Z 14006KT M04/M13 A3028 RMK A01 T10381128  RH  050%=      5-min Rain = 0
KREE 121410Z 14006KT M03/M13 A3028 RMK A01 T10341128  RH  049%=      5-min Rain = 0
KREE 121415Z 13006KT M03/M13 A3028 RMK A01 T10311130  RH  047%=      5-min Rain = 0
KREE 121420Z 12006KT M03/M13 A3028 RMK A01 T10301130  RH  047%=      5-min Rain = 0
KREE 121425Z 12007KT M03/M13 A3028 RMK A01 T10291130  RH  047%=      5-min Rain = 0
KREE 121430Z 13008KT M03/M13 A3028 RMK A01 T10281131  RH  046%=      5-min Rain = 0
KREE 121435Z 14009KT M02/M13 A3028 RMK A01 T10241131  RH  044%=      5-min Rain = 0
KREE 121440Z 13010KT M02/M13 A3028 RMK A01 T10231133  RH  043%=      5-min Rain = 0
KREE 121445Z 13011KT M02/M13 A3029 RMK A01 T10211133  RH  042%=      5-min Rain = 0
KREE 121450Z 13011KT M02/M14 A3029 RMK A01 T10231135  RH  043%=      5-min Rain = 0
KREE 121455Z 14010KT M02/M13 A3029 RMK A01 T10231134  RH  043%=      5-min Rain = 0
KREE 121500Z 13009KT M02/M13 A303 RMK A01 T10211133  RH  043%=      5-min Rain = 0
KREE 121505Z 13011KT M02/M13 A303 RMK A01 T10181133  RH  042%=      5-min Rain = 0
KREE 121510Z 13009KT M02/M13 A303 RMK A01 T10171134  RH  041%=      5-min Rain = 0
KREE 121515Z 13008KT M01/M13 A303 RMK A01 T10111132  RH  040%=      5-min Rain = 0
KREE 121520Z 13011KT M01/M14 A303 RMK A01 T10071136  RH  037%=      5-min Rain = 0
KREE 121525Z 13011KT M00/M14 A303 RMK A01 T10031139  RH  036%=      5-min Rain = 0
KREE 121530Z 13012KT M00/M14 A303 RMK A01 T10031141  RH  035%=      5-min Rain = 0
KREE 121535Z 13012KT M00/M14 A303 RMK A01 T10031140  RH  035%=      5-min Rain = 0
KREE 121540Z 13013KT M00/M14 A303 RMK A01 T10031140  RH  035%=      5-min Rain = 0
KREE 121545Z 13013KT M01/M14 A303 RMK A01 T10051142  RH  035%=      5-min Rain = 0
KREE 121550Z 12013KT M01/M14 A303 RMK A01 T10081141  RH  036%=      5-min Rain = 0
KREE 121555Z 13013KT M01/M14 A303 RMK A01 T10081140  RH  037%=      5-min Rain = 0
KREE 121600Z 13012KT M01/M14 A3031 RMK A01 T10061137  RH  037%=      5-min Rain = 0
KREE 121605Z 12013KT M00/M14 A303 RMK A01 T10041139  RH  036%=      5-min Rain = 0
KREE 121610Z 13013KT M00/M14 A303 RMK A01 T10011137  RH  036%=      5-min Rain = 0
KREE 121615Z 12013KT 00/M14 A303 RMK A01 T00041137  RH  034%=      5-min Rain = 0
KREE 121620Z 12012KT 01/M14 A303 RMK A01 T00051139  RH  034%=      5-min Rain = 0
KREE 121625Z 12012G17KT 00/M14 A303 RMK A01 T00021138  RH  035%=      5-min Rain = 0
KREE 121630Z 12012G17KT 01/M14 A303 RMK A01 T00101138  RH  033%=      5-min Rain = 0
KREE 121635Z 12015KT 01/M14 A303 RMK A01 T00111142  RH  031%=      5-min Rain = 0
KREE 121640Z 13013KT 01/M14 A303 RMK A01 T00141141  RH  031%=      5-min Rain = 0
KREE 121645Z 12012KT 02/M14 A303 RMK A01 T00171141  RH  030%=      5-min Rain = 0
KREE 121650Z 11013G18KT 02/M14 A3029 RMK A01 T00151144  RH  030%=      5-min Rain = 0
KREE 121655Z 11014KT 01/M15 A3029 RMK A01 T00141147  RH  029%=      5-min Rain = 0
KREE 121700Z 12013KT 02/M15 A3029 RMK A01 T00181148  RH  028%=      5-min Rain = 0
KREE 121705Z 12013KT 02/M15 A3029 RMK A01 T00201146  RH  028%=      5-min Rain = 0
KREE 121710Z 11013KT 02/M15 A3029 RMK A01 T00221146  RH  028%=      5-min Rain = 0
KREE 121715Z 11013KT 02/M15 A3029 RMK A01 T00231147  RH  028%=      5-min Rain = 0
KREE 121720Z 10013KT 02/M15 A3029 RMK A01 T00241148  RH  027%=      5-min Rain = 0
KREE 121725Z 12012KT 03/M15 A3029 RMK A01 T00291149  RH  026%=      5-min Rain = 0
KREE 121730Z 11012G18KT 03/M15 A3029 RMK A01 T00281151  RH  026%=      5-min Rain = 0
KREE 121735Z 12013KT 03/M15 A3029 RMK A01 T00291153  RH  025%=      5-min Rain = 0
KREE 121740Z 12014KT 03/M16 A3028 RMK A01 T00301159  RH  024%=      5-min Rain = 0
KREE 121745Z 13013KT 03/M16 A3028 RMK A01 T00321162  RH  023%=      5-min Rain = 0
KREE 121750Z 12012G17KT 04/M16 A3028 RMK A01 T00361159  RH  023%=      5-min Rain = 0
KREE 121755Z 12011G16KT 04/M16 A3028 RMK A01 T00371157  RH  023%=      5-min Rain = 0
KREE 121800Z 12013G18KT 04/M16 A3028 RMK A01 T00371161  RH  022%=      5-min Rain = 0
KREE 121805Z 12011G16KT 04/M16 A3028 RMK A01 T00391164  RH  022%=      5-min Rain = 0
KREE 121810Z 13012KT 04/M17 A3028 RMK A01 T00421169  RH  020%=      5-min Rain = 0
KREE 121815Z 12012KT 04/M17 A3027 RMK A01 T00411166  RH  021%=      5-min Rain = 0
KREE 121820Z 12012KT 05/M17 A3027 RMK A01 T00471170  RH  019%=      5-min Rain = 0
KREE 121825Z 13012KT 05/M17 A3027 RMK A01 T00521173  RH  018%=      5-min Rain = 0
KREE 121830Z 15012G17KT 05/M17 A3027 RMK A01 T00521170  RH  019%=      5-min Rain = 0
KREE 121835Z 14013G18KT 05/M16 A3027 RMK A01 T00531164  RH  019%=      5-min Rain = 0
KREE 121840Z 13015KT 05/M16 A3026 RMK A01 T00521161  RH  020%=      5-min Rain = 0
KREE 121845Z 13017KT 05/M16 A3025 RMK A01 T00531157  RH  021%=      5-min Rain = 0
KREE 121850Z 13014KT 06/M15 A3025 RMK A01 T00551154  RH  021%=      5-min Rain = 0
KREE 121855Z 14013G18KT 06/M15 A3025 RMK A01 T00591151  RH  021%=      5-min Rain = 0
KREE 121900Z 14013G19KT 06/M15 A3024 RMK A01 T00641148  RH  021%=      5-min Rain = 0
KREE 121905Z 13014G20KT 06/M15 A3024 RMK A01 T00591146  RH  022%=      5-min Rain = 0
KREE 121910Z 14013KT 06/M14 A3024 RMK A01 T00631143  RH  022%=      5-min Rain = 0
KREE 121915Z 12013KT 06/M14 A3023 RMK A01 T00611143  RH  022%=      5-min Rain = 0
KREE 121920Z 13014KT 06/M14 A3023 RMK A01 T00591141  RH  023%=      5-min Rain = 0
KREE 121925Z 14014KT 06/M14 A3022 RMK A01 T00641138  RH  022%=      5-min Rain = 0
KREE 121930Z 12015KT 06/M14 A3022 RMK A01 T00611138  RH  023%=      5-min Rain = 0
KREE 121935Z 13013G20KT 06/M13 A3022 RMK A01 T00641134  RH  023%=      5-min Rain = 0
KREE 121940Z 13014G20KT 06/M13 A3021 RMK A01 T00641133  RH  023%=      5-min Rain = 0
KREE 121945Z 12015G21KT 07/M13 A3021 RMK A01 T00661131  RH  023%=      5-min Rain = 0
KREE 121950Z 14014G19KT 07/M13 A302 RMK A01 T00701129  RH  023%=      5-min Rain = 0
KREE 121955Z 14015G21KT 07/M13 A302 RMK A01 T00731129  RH  023%=      5-min Rain = 0
KREE 122000Z 14016KT 07/M13 A302 RMK A01 T00721129  RH  023%=      5-min Rain = 0
KREE 122005Z 14015G20KT 07/M13 A3019 RMK A01 T00731127  RH  023%=      5-min Rain = 0
KREE 122010Z 14016G23KT 08/M13 A3019 RMK A01 T00761125  RH  023%=      5-min Rain = 0
KREE 122015Z 14015G20KT 07/M13 A3019 RMK A01 T00741127  RH  023%=      5-min Rain = 0
KREE 122020Z 14014G20KT 08/M12 A3019 RMK A01 T00761124  RH  023%=      5-min Rain = 0
KREE 122025Z 14015G20KT 08/M13 A3019 RMK A01 T00751125  RH  023%=      5-min Rain = 0
KREE 122030Z 14016G22KT 07/M12 A3018 RMK A01 T00741123  RH  023%=      5-min Rain = 0
KREE 122035Z 15013G20KT 08/M12 A3018 RMK A01 T00811121  RH  023%=      5-min Rain = 0
KREE 122040Z 14014G19KT 08/M12 A3018 RMK A01 T00801121  RH  023%=      5-min Rain = 0
KREE 122045Z 13017G23KT 08/M12 A3018 RMK A01 T00761121  RH  024%=      5-min Rain = 0
KREE 122050Z 14015G20KT 08/M12 A3018 RMK A01 T00761118  RH  024%=      5-min Rain = 0
KREE 122055Z 15014G19KT 08/M12 A3017 RMK A01 T00791118  RH  024%=      5-min Rain = 0
KREE 122100Z 14016G21KT 08/M12 A3017 RMK A01 T00801118  RH  024%=      5-min Rain = 0
KREE 122105Z 13015KT 08/M12 A3017 RMK A01 T00811117  RH  024%=      5-min Rain = 0
KREE 122110Z 13015KT 08/M12 A3017 RMK A01 T00831116  RH  024%=      5-min Rain = 0
KREE 122115Z 14015G21KT 08/M12 A3017 RMK A01 T00821115  RH  024%=      5-min Rain = 0
KREE 122120Z 13015G21KT 08/M12 A3017 RMK A01 T00791116  RH  024%=      5-min Rain = 0
KREE 122125Z 13015KT 08/M12 A3016 RMK A01 T00781115  RH  024%=      5-min Rain = 0
KREE 122130Z 13016G21KT 08/M12 A3016 RMK A01 T00781115  RH  024%=      5-min Rain = 0
KREE 122135Z 14013G20KT 08/M11 A3016 RMK A01 T00761114  RH  025%=      5-min Rain = 0
KREE 122140Z 13014G21KT 08/M12 A3016 RMK A01 T00771115  RH  024%=      5-min Rain = 0
KREE 122145Z 13016KT 08/M12 A3016 RMK A01 T00751116  RH  025%=      5-min Rain = 0
KREE 122150Z 12016KT 07/M12 A3016 RMK A01 T00741115  RH  025%=      5-min Rain = 0
KREE 122155Z 12015G20KT 07/M12 A3016 RMK A01 T00711116  RH  025%=      5-min Rain = 0
KREE 122200Z 12014G19KT 07/M12 A3016 RMK A01 T00721115  RH  025%=      5-min Rain = 0
KREE 122205Z 13015KT 07/M12 A3016 RMK A01 T00721115  RH  025%=      5-min Rain = 0
KREE 122210Z 12013KT 07/M11 A3016 RMK A01 T00721114  RH  026%=      5-min Rain = 0
KREE 122215Z 12015G20KT 07/M11 A3016 RMK A01 T00711113  RH  026%=      5-min Rain = 0
KREE 122220Z 12016KT 07/M11 A3016 RMK A01 T00731112  RH  026%=      5-min Rain = 0
KREE 122225Z 12013KT 07/M11 A3016 RMK A01 T00731111  RH  026%=      5-min Rain = 0
KREE 122230Z 12014G19KT 07/M11 A3016 RMK A01 T00741111  RH  026%=      5-min Rain = 0
KREE 122235Z 12015KT 08/M11 A3016 RMK A01 T00751111  RH  026%=      5-min Rain = 0
KREE 122240Z 12015KT 07/M11 A3016 RMK A01 T00741111  RH  026%=      5-min Rain = 0
KREE 122245Z 13017KT 08/M11 A3016 RMK A01 T00761110  RH  026%=      5-min Rain = 0
KREE 122250Z 14015KT 08/M11 A3016 RMK A01 T00761110  RH  026%=      5-min Rain = 0
KREE 122255Z 13013KT 08/M11 A3016 RMK A01 T00761110  RH  026%=      5-min Rain = 0
KREE 122300Z 13013G18KT 08/M11 A3016 RMK A01 T00761109  RH  026%=      5-min Rain = 0
KREE 122305Z 12016KT 08/M11 A3016 RMK A01 T00761109  RH  026%=      5-min Rain = 0
KREE 122310Z 12016G22KT 08/M11 A3016 RMK A01 T00771109  RH  026%=      5-min Rain = 0
KREE 122315Z 12017KT 08/M11 A3016 RMK A01 T00761109  RH  026%=      5-min Rain = 0
KREE 122320Z 12016KT 07/M11 A3016 RMK A01 T00731109  RH  026%=      5-min Rain = 0
KREE 122325Z 12016KT 07/M11 A3016 RMK A01 T00721109  RH  027%=      5-min Rain = 0
KREE 122330Z 13015KT 07/M11 A3016 RMK A01 T00701110  RH  027%=      5-min Rain = 0
KREE 122335Z 14016G21KT 07/M11 A3016 RMK A01 T00701109  RH  027%=      5-min Rain = 0
KREE 122340Z 14015KT 07/M11 A3016 RMK A01 T00741108  RH  026%=      5-min Rain = 0
KREE 122345Z 13014KT 08/M11 A3016 RMK A01 T00761108  RH  026%=      5-min Rain = 0
KREE 122350Z 13015KT 08/M11 A3016 RMK A01 T00761108  RH  026%=      5-min Rain = 0
KREE 122355Z 14016KT 07/M11 A3016 RMK A01 T00741107  RH  027%=      5-min Rain = 0
KREE 130000Z 15015KT 07/M11 A3016 RMK A01 T00731105  RH  027%=      5-min Rain = 0
KREE 130005Z 15014KT 07/M11 A3016 RMK A01 T00711106  RH  027%=      5-min Rain = 0
KREE 130010Z 14014KT 07/M11 A3016 RMK A01 T00681107  RH  028%=      5-min Rain = 0
KREE 130015Z 14016G21KT 07/M11 A3016 RMK A01 T00651108  RH  028%=      5-min Rain = 0
KREE 130020Z 13015G20KT 06/M11 A3017 RMK A01 T00611109  RH  029%=      5-min Rain = 0
KREE 130025Z 13014KT 06/M11 A3017 RMK A01 T00581114  RH  028%=      5-min Rain = 0
KREE 130030Z 13014KT 06/M11 A3017 RMK A01 T00551114  RH  029%=      5-min Rain = 0
KREE 130035Z 13013G18KT 05/M11 A3017 RMK A01 T00521114  RH  029%=      5-min Rain = 0
KREE 130040Z 13013KT 05/M11 A3017 RMK A01 T00501114  RH  030%=      5-min Rain = 0
KREE 130045Z 13012KT 05/M11 A3017 RMK A01 T00491114  RH  030%=      5-min Rain = 0
KREE 130050Z 12011KT 05/M11 A3017 RMK A01 T00471114  RH  030%=      5-min Rain = 0
KREE 130055Z 12012KT 05/M11 A3018 RMK A01 T00461114  RH  031%=      5-min Rain = 0
KREE 130100Z 12011KT 05/M11 A3018 RMK A01 T00451114  RH  031%=      5-min Rain = 0
KREE 130105Z 12011KT 04/M11 A3018 RMK A01 T00431114  RH  031%=      5-min Rain = 0
KREE 130110Z 12011KT 04/M11 A3018 RMK A01 T00421114  RH  032%=      5-min Rain = 0
KREE 130115Z 12012KT 04/M11 A3018 RMK A01 T00411114  RH  032%=      5-min Rain = 0
KREE 130120Z 13011KT 04/M11 A3018 RMK A01 T00401114  RH  032%=      5-min Rain = 0
KREE 130125Z 12010KT 04/M11 A3019 RMK A01 T00381114  RH  032%=      5-min Rain = 0
KREE 130130Z 12010KT 04/M11 A3019 RMK A01 T00361114  RH  033%=      5-min Rain = 0
KREE 130135Z 12010KT 04/M11 A3019 RMK A01 T00351114  RH  033%=      5-min Rain = 0
KREE 130140Z 12010KT 03/M11 A302 RMK A01 T00341114  RH  033%=      5-min Rain = 0
KREE 130145Z 12011KT 03/M11 A302 RMK A01 T00321113  RH  034%=      5-min Rain = 0
KREE 130150Z 12011KT 03/M11 A302 RMK A01 T00321112  RH  034%=      5-min Rain = 0
KREE 130155Z 12011KT 03/M11 A302 RMK A01 T00321112  RH  034%=      5-min Rain = 0
KREE 130200Z 11012KT 03/M11 A302 RMK A01 T00301112  RH  035%=      5-min Rain = 0
KREE 130205Z 12012KT 03/M11 A302 RMK A01 T00301112  RH  035%=      5-min Rain = 0
KREE 130210Z 12012KT 03/M11 A3021 RMK A01 T00301111  RH  035%=      5-min Rain = 0
KREE 130215Z 11011KT 03/M11 A3021 RMK A01 T00281111  RH  036%=      5-min Rain = 0
KREE 130220Z 11011KT 03/M11 A3021 RMK A01 T00281110  RH  036%=      5-min Rain = 0
KREE 130225Z 11012KT 03/M11 A3022 RMK A01 T00271110  RH  036%=      5-min Rain = 0
KREE 130230Z 12012KT 03/M11 A3022 RMK A01 T00261109  RH  037%=      5-min Rain = 0
KREE 130235Z 12012KT 03/M11 A3022 RMK A01 T00261108  RH  037%=      5-min Rain = 0
KREE 130240Z 12012KT 03/M11 A3022 RMK A01 T00251108  RH  037%=      5-min Rain = 0
KREE 130245Z 12010KT 02/M11 A3022 RMK A01 T00241108  RH  038%=      5-min Rain = 0
KREE 130250Z 12010KT 02/M11 A3022 RMK A01 T00231107  RH  038%=      5-min Rain = 0
KREE 130255Z 12011KT 02/M11 A3022 RMK A01 T00221107  RH  038%=      5-min Rain = 0
KREE 130300Z 12011KT 02/M11 A3022 RMK A01 T00211106  RH  039%=      5-min Rain = 0
KREE 130305Z 12010KT 02/M11 A3022 RMK A01 T00211107  RH  039%=      5-min Rain = 0
KREE 130310Z 12011KT 02/M11 A3022 RMK A01 T00191106  RH  039%=      5-min Rain = 0
KREE 130315Z 12011KT 02/M11 A3022 RMK A01 T00191106  RH  040%=      5-min Rain = 0
KREE 130320Z 11010KT 02/M11 A3022 RMK A01 T00181106  RH  040%=      5-min Rain = 0
KREE 130325Z 11011KT 02/M11 A3022 RMK A01 T00161106  RH  040%=      5-min Rain = 0
KREE 130330Z 12011KT 02/M11 A3022 RMK A01 T00161106  RH  040%=      5-min Rain = 0
KREE 130335Z 11012KT 02/M11 A3022 RMK A01 T00161106  RH  041%=      5-min Rain = 0
KREE 130340Z 12012KT 02/M11 A3022 RMK A01 T00161106  RH  041%=      5-min Rain = 0
KREE 130345Z 12011KT 01/M11 A3022 RMK A01 T00141106  RH  041%=      5-min Rain = 0
KREE 130350Z 12011KT 02/M11 A3022 RMK A01 T00151106  RH  041%=      5-min Rain = 0
KREE 130355Z 12012KT 01/M11 A3022 RMK A01 T00141106  RH  041%=      5-min Rain = 0
KREE 130400Z 12012KT 01/M11 A3022 RMK A01 T00141106  RH  041%=      5-min Rain = 0
KREE 130405Z 12012KT 01/M11 A3022 RMK A01 T00141106  RH  041%=      5-min Rain = 0
KREE 130410Z 12013KT 01/M11 A3022 RMK A01 T00131106  RH  041%=      5-min Rain = 0
KREE 130415Z 12013KT 01/M11 A3022 RMK A01 T00131106  RH  041%=      5-min Rain = 0
KREE 130420Z 12013KT 01/M11 A3022 RMK A01 T00131105  RH  041%=      5-min Rain = 0
KREE 130425Z 12012KT 01/M11 A3023 RMK A01 T00121106  RH  042%=      5-min Rain = 0
KREE 130430Z 12012G17KT 01/M11 A3023 RMK A01 T00111105  RH  042%=      5-min Rain = 0
KREE 130435Z 11012KT 01/M11 A3023 RMK A01 T00101105  RH  042%=      5-min Rain = 0
KREE 130440Z 12011KT 01/M11 A3023 RMK A01 T00091105  RH  043%=      5-min Rain = 0
KREE 130445Z 12012KT 01/M11 A3023 RMK A01 T00091105  RH  043%=      5-min Rain = 0
KREE 130450Z 12012KT 01/M11 A3023 RMK A01 T00091105  RH  043%=      5-min Rain = 0
KREE 130455Z 12012KT 01/M11 A3023 RMK A01 T00081105  RH  043%=      5-min Rain = 0
KREE 130500Z 12012KT 01/M11 A3023 RMK A01 T00081105  RH  043%=      5-min Rain = 0
KREE 130505Z 11011KT 01/M11 A3023 RMK A01 T00071105  RH  043%=      5-min Rain = 0
KREE 130510Z 10011KT 00/M11 A3023 RMK A01 T00041105  RH  044%=      5-min Rain = 0
KREE 130515Z 10011KT 00/M11 A3023 RMK A01 T00031105  RH  045%=      5-min Rain = 0
KREE 130520Z 10011KT 00/M11 A3023 RMK A01 T00021105  RH  045%=      5-min Rain = 0
KREE 130525Z 11011KT 00/M10 A3023 RMK A01 T00011104  RH  046%=      5-min Rain = 0
KREE 130530Z 11011KT 00/M10 A3023 RMK A01 T00011104  RH  046%=      5-min Rain = 0
KREE 130535Z 11012KT 00/10 A3023 RMK A01 T00000-103  RH  046%=      5-min Rain = 0
KREE 130540Z 11012KT 00/10 A3023 RMK A01 T00-00-103  RH  046%=      5-min Rain = 0
KREE 130545Z 11013KT M00/M10 A3023 RMK A01 T10011103  RH  047%=      5-min Rain = 0
KREE 130550Z 11013KT 00/10 A3023 RMK A01 T00-00-102  RH  047%=      5-min Rain = 0
KREE 130555Z 11013KT 00/10 A3023 RMK A01 T00-00-102  RH  047%=      5-min Rain = 0

Page generated in 0.0102 seconds.